North Hills, North Carolina
Current Conditions -  °F | °C
As of 10:51 PM on Tuesday 21 Oct 2014 (Local Time) from KRDU Reporting Station
Broken Clouds Broken Clouds  
Wind Chill: 59°   Ceiling: 7500
Heat Index: 59°   Visibility: 10mi
Dew Point: 40°   Wind: 6mph
Humidity: 49%   Direction: NA
Pressure: 29.95"   Gusts: NA
Location:  35.9447°N, 78.6275°W
Report Text: KRDU 220251Z VRB05KT 10SM BKN075 BKN100 15/04 A2995 RMK AO2 SLP138 T01500044 51015
Loading
Personal Weather Stations






























Interactive Weather Map
Tropical Storm Tracking
New forecast layout! Learn more

10-Day Weather Forecast

Advertisements
Track Severe Weather on mobile